sensor_id;sensor_type;location;lat;lon;timestamp;pressure;altitude;pressure_sealevel;temperature;humidity
64253;BME280;50592;52.958;-7.470;2024-03-25T00:01:43;98689.31;;;8.37;100.00
64253;BME280;50592;52.958;-7.470;2024-03-25T00:04:08;98682.09;;;8.39;100.00
64253;BME280;50592;52.958;-7.470;2024-03-25T00:06:34;98676.00;;;8.38;100.00
64253;BME280;50592;52.958;-7.470;2024-03-25T00:09:01;98672.19;;;8.41;100.00
64253;BME280;50592;52.958;-7.470;2024-03-25T00:11:29;98671.03;;;8.43;100.00
64253;BME280;50592;52.958;-7.470;2024-03-25T00:13:55;98668.41;;;8.43;100.00
64253;BME280;50592;52.958;-7.470;2024-03-25T00:16:22;98653.25;;;8.46;100.00
64253;BME280;50592;52.958;-7.470;2024-03-25T00:18:48;98647.16;;;8.45;100.00
64253;BME280;50592;52.958;-7.470;2024-03-25T00:21:13;98656.34;;;8.49;100.00
64253;BME280;50592;52.958;-7.470;2024-03-25T00:27:53;98637.72;;;8.51;100.00
64253;BME280;50592;52.958;-7.470;2024-03-25T00:30:19;98620.13;;;8.51;100.00
64253;BME280;50592;52.958;-7.470;2024-03-25T00:32:45;98609.59;;;8.51;100.00
64253;BME280;50592;52.958;-7.470;2024-03-25T00:35:11;98610.59;;;8.50;100.00
64253;BME280;50592;52.958;-7.470;2024-03-25T00:37:37;98602.53;;;8.52;100.00
64253;BME280;50592;52.958;-7.470;2024-03-25T00:44:28;98586.22;;;8.56;100.00
64253;BME280;50592;52.958;-7.470;2024-03-25T00:46:54;98577.16;;;8.51;100.00
64253;BME280;50592;52.958;-7.470;2024-03-25T00:49:20;98583.25;;;8.51;100.00
64253;BME280;50592;52.958;-7.470;2024-03-25T00:51:55;98585.88;;;8.60;100.00
64253;BME280;50592;52.958;-7.470;2024-03-25T00:54:44;98575.16;;;8.61;100.00
64253;BME280;50592;52.958;-7.470;2024-03-25T00:57:52;98567.78;;;8.56;100.00
64253;BME280;50592;52.958;-7.470;2024-03-25T01:00:18;98563.13;;;8.59;100.00
64253;BME280;50592;52.958;-7.470;2024-03-25T01:02:45;98562.34;;;8.58;100.00
64253;BME280;50592;52.958;-7.470;2024-03-25T01:05:11;98556.06;;;8.59;100.00
64253;BME280;50592;52.958;-7.470;2024-03-25T01:07:37;98550.47;;;8.54;100.00
64253;BME280;50592;52.958;-7.470;2024-03-25T01:10:12;98555.72;;;8.62;100.00
64253;BME280;50592;52.958;-7.470;2024-03-25T01:12:38;98556.91;;;8.60;100.00
64253;BME280;50592;52.958;-7.470;2024-03-25T01:15:04;98549.78;;;8.60;100.00
64253;BME280;50592;52.958;-7.470;2024-03-25T01:17:31;98540.44;;;8.58;100.00
64253;BME280;50592;52.958;-7.470;2024-03-25T01:19:57;98535.34;;;8.56;100.00
64253;BME280;50592;52.958;-7.470;2024-03-25T01:22:22;98528.47;;;8.55;100.00
64253;BME280;50592;52.958;-7.470;2024-03-25T01:24:48;98522.38;;;8.54;100.00
64253;BME280;50592;52.958;-7.470;2024-03-25T01:27:16;98513.97;;;8.51;100.00
64253;BME280;50592;52.958;-7.470;2024-03-25T01:29:42;98503.44;;;8.51;100.00
64253;BME280;50592;52.958;-7.470;2024-03-25T01:32:08;98506.56;;;8.54;100.00
64253;BME280;50592;52.958;-7.470;2024-03-25T01:34:34;98503.25;;;8.52;100.00
64253;BME280;50592;52.958;-7.470;2024-03-25T01:37:00;98486.84;;;8.50;100.00
64253;BME280;50592;52.958;-7.470;2024-03-25T01:39:26;98484.22;;;8.50;100.00
64253;BME280;50592;52.958;-7.470;2024-03-25T01:41:51;98479.31;;;8.47;100.00
64253;BME280;50592;52.958;-7.470;2024-03-25T01:44:17;98473.69;;;8.50;100.00
64253;BME280;50592;52.958;-7.470;2024-03-25T01:46:43;98469.22;;;8.51;100.00
64253;BME280;50592;52.958;-7.470;2024-03-25T01:49:09;98460.69;;;8.49;100.00
64253;BME280;50592;52.958;-7.470;2024-03-25T01:51:36;98462.84;;;8.45;100.00
64253;BME280;50592;52.958;-7.470;2024-03-25T01:54:04;98456.59;;;8.46;100.00
64253;BME280;50592;52.958;-7.470;2024-03-25T01:56:31;98449.34;;;8.48;100.00
64253;BME280;50592;52.958;-7.470;2024-03-25T01:58:59;98437.34;;;8.46;100.00
64253;BME280;50592;52.958;-7.470;2024-03-25T02:01:26;98444.44;;;8.45;100.00
64253;BME280;50592;52.958;-7.470;2024-03-25T02:03:53;98437.00;;;8.49;100.00
64253;BME280;50592;52.958;-7.470;2024-03-25T02:06:20;98427.25;;;8.49;100.00
64253;BME280;50592;52.958;-7.470;2024-03-25T02:08:48;98418.56;;;8.49;100.00
64253;BME280;50592;52.958;-7.470;2024-03-25T02:11:15;98417.09;;;8.46;100.00
64253;BME280;50592;52.958;-7.470;2024-03-25T02:13:41;98412.47;;;8.48;100.00
64253;BME280;50592;52.958;-7.470;2024-03-25T02:16:07;98407.38;;;8.47;100.00
64253;BME280;50592;52.958;-7.470;2024-03-25T02:18:33;98403.94;;;8.46;100.00
64253;BME280;50592;52.958;-7.470;2024-03-25T02:20:59;98392.41;;;8.47;100.00
64253;BME280;50592;52.958;-7.470;2024-03-25T02:23:27;98400.13;;;8.49;100.00
64253;BME280;50592;52.958;-7.470;2024-03-25T02:25:53;98381.53;;;8.50;100.00
64253;BME280;50592;52.958;-7.470;2024-03-25T02:28:20;98381.53;;;8.50;100.00
64253;BME280;50592;52.958;-7.470;2024-03-25T02:30:46;98369.34;;;8.49;100.00
64253;BME280;50592;52.958;-7.470;2024-03-25T02:33:13;98361.44;;;8.49;100.00
64253;BME280;50592;52.958;-7.470;2024-03-25T02:35:40;98361.44;;;8.49;100.00
64253;BME280;50592;52.958;-7.470;2024-03-25T02:38:08;98357.00;;;8.50;100.00
64253;BME280;50592;52.958;-7.470;2024-03-25T02:40:35;98355.19;;;8.50;100.00
64253;BME280;50592;52.958;-7.470;2024-03-25T02:43:01;98345.81;;;8.48;100.00
64253;BME280;50592;52.958;-7.470;2024-03-25T02:45:27;98339.75;;;8.47;100.00
64253;BME280;50592;52.958;-7.470;2024-03-25T02:47:53;98340.13;;;8.44;100.00
64253;BME280;50592;52.958;-7.470;2024-03-25T02:50:19;98334.69;;;8.46;100.00
64253;BME280;50592;52.958;-7.470;2024-03-25T02:52:45;98327.31;;;8.41;100.00
64253;BME280;50592;52.958;-7.470;2024-03-25T02:55:10;98323.03;;;8.40;100.00
64253;BME280;50592;52.958;-7.470;2024-03-25T02:57:36;98310.72;;;8.40;100.00
64253;BME280;50592;52.958;-7.470;2024-03-25T03:00:02;98303.38;;;8.36;100.00
64253;BME280;50592;52.958;-7.470;2024-03-25T03:02:28;98295.84;;;8.32;100.00
64253;BME280;50592;52.958;-7.470;2024-03-25T03:04:54;98291.19;;;8.35;100.00
64253;BME280;50592;52.958;-7.470;2024-03-25T03:07:20;98286.28;;;8.31;100.00
64253;BME280;50592;52.958;-7.470;2024-03-25T03:09:46;98276.75;;;8.30;100.00
64253;BME280;50592;52.958;-7.470;2024-03-25T03:12:11;98280.78;;;8.26;100.00
64253;BME280;50592;52.958;-7.470;2024-03-25T03:14:37;98279.75;;;8.27;100.00
64253;BME280;50592;52.958;-7.470;2024-03-25T03:17:03;98275.50;;;8.26;100.00
64253;BME280;50592;52.958;-7.470;2024-03-25T03:19:31;98268.41;;;8.27;100.00
64253;BME280;50592;52.958;-7.470;2024-03-25T03:21:57;98266.59;;;8.27;100.00
64253;BME280;50592;52.958;-7.470;2024-03-25T03:24:23;98262.16;;;8.28;100.00
64253;BME280;50592;52.958;-7.470;2024-03-25T03:26:49;98249.19;;;8.26;100.00
64253;BME280;50592;52.958;-7.470;2024-03-25T03:29:15;98247.34;;;8.27;100.00
64253;BME280;50592;52.958;-7.470;2024-03-25T03:31:41;98236.03;;;8.26;100.00
64253;BME280;50592;52.958;-7.470;2024-03-25T03:34:07;98232.94;;;8.23;100.00
64253;BME280;50592;52.958;-7.470;2024-03-25T03:36:33;98227.50;;;8.24;100.00
64253;BME280;50592;52.958;-7.470;2024-03-25T03:38:59;98213.69;;;8.22;100.00
64253;BME280;50592;52.958;-7.470;2024-03-25T03:41:25;98212.91;;;8.22;100.00
64253;BME280;50592;52.958;-7.470;2024-03-25T03:43:50;98212.53;;;8.25;100.00
64253;BME280;50592;52.958;-7.470;2024-03-25T03:46:16;98200.53;;;8.22;100.00
64253;BME280;50592;52.958;-7.470;2024-03-25T03:48:42;98196.47;;;8.19;100.00
64253;BME280;50592;52.958;-7.470;2024-03-25T03:51:08;98190.56;;;8.17;100.00
64253;BME280;50592;52.958;-7.470;2024-03-25T03:53:34;98195.66;;;8.19;100.00
64253;BME280;50592;52.958;-7.470;2024-03-25T03:56:03;98179.66;;;8.21;100.00
64253;BME280;50592;52.958;-7.470;2024-03-25T03:58:31;98183.50;;;8.18;100.00
64253;BME280;50592;52.958;-7.470;2024-03-25T04:00:57;98182.47;;;8.19;100.00
64253;BME280;50592;52.958;-7.470;2024-03-25T04:03:24;98173.16;;;8.16;100.00
64253;BME280;50592;52.958;-7.470;2024-03-25T04:05:49;98168.06;;;8.15;100.00
64253;BME280;50592;52.958;-7.470;2024-03-25T04:08:15;98164.25;;;8.17;100.00
64253;BME280;50592;52.958;-7.470;2024-03-25T04:10:42;98160.81;;;8.17;100.00
64253;BME280;50592;52.958;-7.470;2024-03-25T04:13:08;98163.09;;;8.20;100.00
64253;BME280;50592;52.958;-7.470;2024-03-25T04:15:35;98159.19;;;8.16;100.00
64253;BME280;50592;52.958;-7.470;2024-03-25T04:18:01;98150.91;;;8.19;100.00
64253;BME280;50592;52.958;-7.470;2024-03-25T04:20:27;98154.56;;;8.18;100.00
64253;BME280;50592;52.958;-7.470;2024-03-25T04:22:56;98150.28;;;8.17;100.00
64253;BME280;50592;52.958;-7.470;2024-03-25T04:25:22;98135.88;;;8.13;100.00
64253;BME280;50592;52.958;-7.470;2024-03-25T04:27:48;98140.56;;;8.17;100.00
64253;BME280;50592;52.958;-7.470;2024-03-25T04:30:14;98132.84;;;8.16;100.00
64253;BME280;50592;52.958;-7.470;2024-03-25T04:32:40;98141.13;;;8.13;100.00
64253;BME280;50592;52.958;-7.470;2024-03-25T04:35:07;98140.31;;;8.12;100.00
64253;BME280;50592;52.958;-7.470;2024-03-25T04:37:33;98121.88;;;8.12;100.00
64253;BME280;50592;52.958;-7.470;2024-03-25T04:40:01;98127.34;;;8.11;100.00
64253;BME280;50592;52.958;-7.470;2024-03-25T04:42:26;98116.00;;;8.10;100.00
64253;BME280;50592;52.958;-7.470;2024-03-25T04:44:52;98122.06;;;8.11;100.00
64253;BME280;50592;52.958;-7.470;2024-03-25T04:47:19;98115.81;;;8.12;100.00
64253;BME280;50592;52.958;-7.470;2024-03-25T04:49:45;98104.66;;;8.10;100.00
64253;BME280;50592;52.958;-7.470;2024-03-25T04:52:15;98109.75;;;8.11;100.00
64253;BME280;50592;52.958;-7.470;2024-03-25T04:54:44;98106.66;;;8.07;100.00
64253;BME280;50592;52.958;-7.470;2024-03-25T04:57:10;98103.66;;;8.11;100.00
64253;BME280;50592;52.958;-7.470;2024-03-25T04:59:36;98094.50;;;8.06;100.00
64253;BME280;50592;52.958;-7.470;2024-03-25T05:02:02;98098.16;;;8.05;100.00
64253;BME280;50592;52.958;-7.470;2024-03-25T05:04:28;98092.88;;;8.05;100.00
64253;BME280;50592;52.958;-7.470;2024-03-25T05:06:54;98090.25;;;8.05;100.00
64253;BME280;50592;52.958;-7.470;2024-03-25T05:09:19;98080.91;;;8.03;100.00
64253;BME280;50592;52.958;-7.470;2024-03-25T05:11:46;98079.75;;;8.05;100.00
64253;BME280;50592;52.958;-7.470;2024-03-25T05:14:11;98079.28;;;8.02;100.00
64253;BME280;50592;52.958;-7.470;2024-03-25T05:16:37;98077.28;;;8.04;100.00
64253;BME280;50592;52.958;-7.470;2024-03-25T05:19:03;98074.03;;;8.02;100.00
64253;BME280;50592;52.958;-7.470;2024-03-25T05:21:33;98073.19;;;8.01;100.00
64253;BME280;50592;52.958;-7.470;2024-03-25T05:23:59;98068.13;;;8.00;100.00
64253;BME280;50592;52.958;-7.470;2024-03-25T05:26:24;98069.78;;;8.01;100.00
64253;BME280;50592;52.958;-7.470;2024-03-25T05:28:54;98053.63;;;8.04;100.00
64253;BME280;50592;52.958;-7.470;2024-03-25T05:31:20;98064.13;;;8.04;100.00
64253;BME280;50592;52.958;-7.470;2024-03-25T05:33:46;98058.63;;;7.99;100.00
64253;BME280;50592;52.958;-7.470;2024-03-25T05:36:13;98054.19;;;7.99;100.00
64253;BME280;50592;52.958;-7.470;2024-03-25T05:38:39;98051.16;;;8.02;100.00
64253;BME280;50592;52.958;-7.470;2024-03-25T05:41:05;98050.53;;;8.00;100.00
64253;BME280;50592;52.958;-7.470;2024-03-25T05:43:31;98041.22;;;7.98;100.00
64253;BME280;50592;52.958;-7.470;2024-03-25T05:45:57;98044.81;;;7.97;100.00
64253;BME280;50592;52.958;-7.470;2024-03-25T05:48:26;98041.81;;;8.00;100.00
64253;BME280;50592;52.958;-7.470;2024-03-25T05:51:02;98034.13;;;7.98;100.00
64253;BME280;50592;52.958;-7.470;2024-03-25T05:53:28;98034.31;;;7.97;100.00
64253;BME280;50592;52.958;-7.470;2024-03-25T05:55:55;98033.31;;;7.98;100.00
64253;BME280;50592;52.958;-7.470;2024-03-25T05:58:21;98035.69;;;7.92;100.00
64253;BME280;50592;52.958;-7.470;2024-03-25T06:00:51;98036.94;;;7.97;100.00
64253;BME280;50592;52.958;-7.470;2024-03-25T06:03:17;98020.91;;;7.91;100.00
64253;BME280;50592;52.958;-7.470;2024-03-25T06:05:43;98029.97;;;7.89;100.00
64253;BME280;50592;52.958;-7.470;2024-03-25T06:08:09;98028.81;;;7.91;100.00
64253;BME280;50592;52.958;-7.470;2024-03-25T06:10:43;98027.16;;;7.90;100.00
64253;BME280;50592;52.958;-7.470;2024-03-25T06:13:09;98021.34;;;7.95;100.00
64253;BME280;50592;52.958;-7.470;2024-03-25T06:15:35;98018.09;;;7.93;100.00
64253;BME280;50592;52.958;-7.470;2024-03-25T06:18:01;98011.00;;;7.93;100.00
64253;BME280;50592;52.958;-7.470;2024-03-25T06:20:27;98012.00;;;7.92;100.00
64253;BME280;50592;52.958;-7.470;2024-03-25T06:22:52;98007.13;;;7.89;100.00
64253;BME280;50592;52.958;-7.470;2024-03-25T06:25:18;97999.63;;;7.86;100.00
64253;BME280;50592;52.958;-7.470;2024-03-25T06:27:44;98007.97;;;7.90;100.00
64253;BME280;50592;52.958;-7.470;2024-03-25T06:30:10;97990.16;;;7.92;100.00
64253;BME280;50592;52.958;-7.470;2024-03-25T06:32:55;97986.28;;;7.88;100.00
64253;BME280;50592;52.958;-7.470;2024-03-25T06:35:42;97984.47;;;7.88;100.00
64253;BME280;50592;52.958;-7.470;2024-03-25T06:38:09;97985.66;;;7.86;100.00
64253;BME280;50592;52.958;-7.470;2024-03-25T06:40:35;97987.28;;;7.87;100.00
64253;BME280;50592;52.958;-7.470;2024-03-25T06:43:01;97984.47;;;7.88;100.00
64253;BME280;50592;52.958;-7.470;2024-03-25T06:45:27;97973.13;;;7.88;100.00
64253;BME280;50592;52.958;-7.470;2024-03-25T06:47:52;97967.69;;;7.89;100.00
64253;BME280;50592;52.958;-7.470;2024-03-25T06:50:18;97955.97;;;7.92;100.00
64253;BME280;50592;52.958;-7.470;2024-03-25T06:52:44;97955.53;;;7.88;100.00
64253;BME280;50592;52.958;-7.470;2024-03-25T06:55:11;97948.63;;;7.87;100.00
64253;BME280;50592;52.958;-7.470;2024-03-25T06:57:37;97946.00;;;7.87;100.00
64253;BME280;50592;52.958;-7.470;2024-03-25T07:00:03;97939.31;;;7.85;100.00
64253;BME280;50592;52.958;-7.470;2024-03-25T07:02:35;97934.84;;;7.85;100.00
64253;BME280;50592;52.958;-7.470;2024-03-25T07:05:01;97937.94;;;7.89;100.00
64253;BME280;50592;52.958;-7.470;2024-03-25T07:07:27;97936.31;;;7.88;100.00
64253;BME280;50592;52.958;-7.470;2024-03-25T07:09:53;97944.00;;;7.89;100.00
64253;BME280;50592;52.958;-7.470;2024-03-25T07:12:19;97941.19;;;7.91;100.00
64253;BME280;50592;52.958;-7.470;2024-03-25T07:14:46;97930.84;;;7.89;100.00
64253;BME280;50592;52.958;-7.470;2024-03-25T07:17:11;97932.47;;;7.90;100.00
64253;BME280;50592;52.958;-7.470;2024-03-25T07:19:37;97924.59;;;7.90;100.00
64253;BME280;50592;52.958;-7.470;2024-03-25T07:22:03;97926.03;;;7.93;100.00
64253;BME280;50592;52.958;-7.470;2024-03-25T07:24:29;97939.38;;;7.91;100.00
64253;BME280;50592;52.958;-7.470;2024-03-25T07:26:55;97935.56;;;7.94;100.00
64253;BME280;50592;52.958;-7.470;2024-03-25T07:29:20;97936.19;;;7.96;100.00
64253;BME280;50592;52.958;-7.470;2024-03-25T07:31:46;97942.44;;;7.95;100.00
64253;BME280;50592;52.958;-7.470;2024-03-25T07:34:12;97941.63;;;7.94;100.00
64253;BME280;50592;52.958;-7.470;2024-03-25T07:36:38;97938.63;;;7.98;100.00
64253;BME280;50592;52.958;-7.470;2024-03-25T07:39:04;97932.53;;;7.97;100.00
64253;BME280;50592;52.958;-7.470;2024-03-25T07:41:39;97934.16;;;7.98;100.00
64253;BME280;50592;52.958;-7.470;2024-03-25T07:44:05;97926.66;;;7.95;100.00
64253;BME280;50592;52.958;-7.470;2024-03-25T07:46:31;97935.81;;;7.99;100.00
64253;BME280;50592;52.958;-7.470;2024-03-25T07:48:57;97930.94;;;8.03;100.00
64253;BME280;50592;52.958;-7.470;2024-03-25T07:51:23;97925.69;;;8.03;100.00
64253;BME280;50592;52.958;-7.470;2024-03-25T07:53:48;97931.59;;;8.05;100.00
64253;BME280;50592;52.958;-7.470;2024-03-25T07:56:15;97925.75;;;8.10;100.00
64253;BME280;50592;52.958;-7.470;2024-03-25T07:58:41;97915.66;;;8.13;100.00
64253;BME280;50592;52.958;-7.470;2024-03-25T08:01:07;97921.13;;;8.12;100.00
64253;BME280;50592;52.958;-7.470;2024-03-25T08:03:33;97926.00;;;8.15;100.00
64253;BME280;50592;52.958;-7.470;2024-03-25T08:05:59;97921.00;;;8.20;100.00
64253;BME280;50592;52.958;-7.470;2024-03-25T08:08:25;97912.47;;;8.18;100.00
64253;BME280;50592;52.958;-7.470;2024-03-25T08:10:51;97910.06;;;8.23;100.00
64253;BME280;50592;52.958;-7.470;2024-03-25T08:13:18;97908.69;;;8.27;100.00
64253;BME280;50592;52.958;-7.470;2024-03-25T08:15:46;97905.84;;;8.29;100.00
64253;BME280;50592;52.958;-7.470;2024-03-25T08:18:11;97914.00;;;8.34;100.00
64253;BME280;50592;52.958;-7.470;2024-03-25T08:20:38;97906.69;;;8.36;100.00
64253;BME280;50592;52.958;-7.470;2024-03-25T08:23:04;97911.81;;;8.44;100.00
64253;BME280;50592;52.958;-7.470;2024-03-25T08:25:31;97908.00;;;8.47;100.00
64253;BME280;50592;52.958;-7.470;2024-03-25T08:27:57;97905.38;;;8.47;100.00
64253;BME280;50592;52.958;-7.470;2024-03-25T08:30:24;97907.63;;;8.50;100.00
64253;BME280;50592;52.958;-7.470;2024-03-25T08:32:50;97902.19;;;8.59;100.00
64253;BME280;50592;52.958;-7.470;2024-03-25T08:35:16;97897.75;;;8.59;100.00
64253;BME280;50592;52.958;-7.470;2024-03-25T08:37:48;97905.69;;;8.66;100.00
64253;BME280;50592;52.958;-7.470;2024-03-25T08:40:14;97889.66;;;8.61;100.00
64253;BME280;50592;52.958;-7.470;2024-03-25T08:42:42;97904.69;;;8.67;100.00
64253;BME280;50592;52.958;-7.470;2024-03-25T08:45:08;97887.50;;;8.71;100.00
64253;BME280;50592;52.958;-7.470;2024-03-25T08:47:34;97889.91;;;8.66;100.00
64253;BME280;50592;52.958;-7.470;2024-03-25T08:50:00;97889.75;;;8.74;100.00
64253;BME280;50592;52.958;-7.470;2024-03-25T08:52:26;97882.03;;;8.73;100.00
64253;BME280;50592;52.958;-7.470;2024-03-25T08:54:52;97885.69;;;8.78;100.00
64253;BME280;50592;52.958;-7.470;2024-03-25T08:57:18;97888.56;;;8.90;100.00
64253;BME280;50592;52.958;-7.470;2024-03-25T08:59:43;97879.88;;;8.97;100.00
64253;BME280;50592;52.958;-7.470;2024-03-25T09:02:09;97873.81;;;8.96;100.00
64253;BME280;50592;52.958;-7.470;2024-03-25T09:04:35;97875.41;;;8.97;100.00
64253;BME280;50592;52.958;-7.470;2024-03-25T09:07:01;97878.88;;;8.98;100.00
64253;BME280;50592;52.958;-7.470;2024-03-25T09:09:27;97875.00;;;8.93;100.00
64253;BME280;50592;52.958;-7.470;2024-03-25T09:12:11;97872.38;;;8.93;100.00
64253;BME280;50592;52.958;-7.470;2024-03-25T09:14:37;97873.34;;;8.86;100.00
64253;BME280;50592;52.958;-7.470;2024-03-25T09:17:04;97872.94;;;8.89;100.00
64253;BME280;50592;52.958;-7.470;2024-03-25T09:19:30;97867.69;;;8.82;100.00
64253;BME280;50592;52.958;-7.470;2024-03-25T09:21:56;97866.03;;;8.74;100.00
64253;BME280;50592;52.958;-7.470;2024-03-25T09:24:22;97865.38;;;8.65;100.00
64253;BME280;50592;52.958;-7.470;2024-03-25T09:26:51;97867.03;;;8.73;100.00
64253;BME280;50592;52.958;-7.470;2024-03-25T09:29:17;97864.75;;;8.63;100.00
64253;BME280;50592;52.958;-7.470;2024-03-25T09:31:43;97863.97;;;8.63;100.00
64253;BME280;50592;52.958;-7.470;2024-03-25T09:34:09;97867.19;;;8.58;100.00
64253;BME280;50592;52.958;-7.470;2024-03-25T09:36:34;97868.16;;;8.57;100.00
64253;BME280;50592;52.958;-7.470;2024-03-25T09:39:00;97870.00;;;8.56;100.00
64253;BME280;50592;52.958;-7.470;2024-03-25T09:41:28;97868.78;;;8.59;100.00
64253;BME280;50592;52.958;-7.470;2024-03-25T09:43:54;97874.44;;;8.56;100.00
64253;BME280;50592;52.958;-7.470;2024-03-25T09:46:23;97868.50;;;8.47;100.00
64253;BME280;50592;52.958;-7.470;2024-03-25T09:48:52;97866.28;;;8.44;100.00
64253;BME280;50592;52.958;-7.470;2024-03-25T09:51:19;97869.44;;;8.39;100.00
64253;BME280;50592;52.958;-7.470;2024-03-25T09:53:48;97866.81;;;8.39;100.00
64253;BME280;50592;52.958;-7.470;2024-03-25T09:56:40;97872.00;;;8.54;100.00
64253;BME280;50592;52.958;-7.470;2024-03-25T09:59:13;97871.63;;;8.58;100.00
64253;BME280;50592;52.958;-7.470;2024-03-25T10:01:42;97868.66;;;8.74;100.00
64253;BME280;50592;52.958;-7.470;2024-03-25T10:04:14;97870.72;;;8.79;100.00
64253;BME280;50592;52.958;-7.470;2024-03-25T10:06:40;97868.28;;;8.84;100.00
64253;BME280;50592;52.958;-7.470;2024-03-25T10:09:27;97867.09;;;8.87;100.00
64253;BME280;50592;52.958;-7.470;2024-03-25T10:11:53;97874.38;;;8.85;100.00
64253;BME280;50592;52.958;-7.470;2024-03-25T10:14:24;97864.06;;;8.90;100.00
64253;BME280;50592;52.958;-7.470;2024-03-25T10:17:02;97871.16;;;8.96;100.00
64253;BME280;50592;52.958;-7.470;2024-03-25T10:19:30;97867.09;;;8.87;100.00
64253;BME280;50592;52.958;-7.470;2024-03-25T10:23:02;97872.59;;;8.99;100.00
64253;BME280;50592;52.958;-7.470;2024-03-25T10:25:28;97867.75;;;9.02;100.00
64253;BME280;50592;52.958;-7.470;2024-03-25T10:27:58;97863.13;;;9.18;100.00
64253;BME280;50592;52.958;-7.470;2024-03-25T10:30:24;97876.13;;;9.33;100.00
64253;BME280;50592;52.958;-7.470;2024-03-25T10:35:39;97875.75;;;9.50;100.00
64253;BME280;50592;52.958;-7.470;2024-03-25T10:38:09;97867.84;;;9.57;100.00
64253;BME280;50592;52.958;-7.470;2024-03-25T10:40:39;97861.34;;;9.52;100.00
64253;BME280;50592;52.958;-7.470;2024-03-25T10:43:11;97866.03;;;9.50;100.00
64253;BME280;50592;52.958;-7.470;2024-03-25T10:45:45;97865.41;;;9.48;100.00
64253;BME280;50592;52.958;-7.470;2024-03-25T10:48:15;97855.25;;;9.38;100.00
64253;BME280;50592;52.958;-7.470;2024-03-25T10:50:43;97865.78;;;9.32;100.00
64253;BME280;50592;52.958;-7.470;2024-03-25T10:53:10;97855.66;;;9.28;100.00
64253;BME280;50592;52.958;-7.470;2024-03-25T10:55:37;97864.78;;;9.33;100.00
64253;BME280;50592;52.958;-7.470;2024-03-25T10:58:07;97862.97;;;9.47;100.00
64253;BME280;50592;52.958;-7.470;2024-03-25T11:00:37;97859.53;;;9.60;100.00
64253;BME280;50592;52.958;-7.470;2024-03-25T11:03:04;97854.28;;;9.66;100.00
64253;BME280;50592;52.958;-7.470;2024-03-25T11:05:30;97850.41;;;9.69;100.00
64253;BME280;50592;52.958;-7.470;2024-03-25T11:07:56;97854.66;;;9.77;100.00
64253;BME280;50592;52.958;-7.470;2024-03-25T11:10:29;97851.81;;;9.78;100.00
64253;BME280;50592;52.958;-7.470;2024-03-25T11:12:55;97845.34;;;9.74;100.00
64253;BME280;50592;52.958;-7.470;2024-03-25T11:15:21;97849.19;;;9.78;100.00
64253;BME280;50592;52.958;-7.470;2024-03-25T11:17:50;97846.34;;;9.87;100.00
64253;BME280;50592;52.958;-7.470;2024-03-25T11:20:17;97847.16;;;9.87;100.00
64253;BME280;50592;52.958;-7.470;2024-03-25T11:22:52;97836.56;;;9.94;100.00
64253;BME280;50592;52.958;-7.470;2024-03-25T11:25:20;97852.63;;;9.92;100.00
64253;BME280;50592;52.958;-7.470;2024-03-25T11:27:47;97842.88;;;9.86;100.00
64253;BME280;50592;52.958;-7.470;2024-03-25T11:30:14;97838.00;;;9.83;100.00
64253;BME280;50592;52.958;-7.470;2024-03-25T11:32:47;97844.31;;;9.82;100.00
64253;BME280;50592;52.958;-7.470;2024-03-25T11:35:16;97834.38;;;9.77;100.00
64253;BME280;50592;52.958;-7.470;2024-03-25T11:37:43;97829.47;;;9.81;100.00
64253;BME280;50592;52.958;-7.470;2024-03-25T11:40:10;97822.19;;;9.83;100.00
64253;BME280;50592;52.958;-7.470;2024-03-25T11:42:39;97826.84;;;9.88;100.00
64253;BME280;50592;52.958;-7.470;2024-03-25T11:45:06;97830.91;;;9.90;100.00
64253;BME280;50592;52.958;-7.470;2024-03-25T11:47:32;97826.25;;;9.86;100.00
64253;BME280;50592;52.958;-7.470;2024-03-25T11:49:58;97824.81;;;9.83;100.00
64253;BME280;50592;52.958;-7.470;2024-03-25T11:52:24;97820.16;;;9.85;100.00
64253;BME280;50592;52.958;-7.470;2024-03-25T11:55:21;97816.91;;;9.90;100.00
64253;BME280;50592;52.958;-7.470;2024-03-25T11:57:57;97819.53;;;9.97;100.00
64253;BME280;50592;52.958;-7.470;2024-03-25T12:00:24;97820.75;;;10.01;100.00
64253;BME280;50592;52.958;-7.470;2024-03-25T12:02:55;97818.72;;;10.03;100.00
64253;BME280;50592;52.958;-7.470;2024-03-25T12:05:21;97821.72;;;10.13;100.00
64253;BME280;50592;52.958;-7.470;2024-03-25T12:07:47;97811.56;;;10.17;100.00
64253;BME280;50592;52.958;-7.470;2024-03-25T12:10:12;97806.50;;;10.15;100.00
64253;BME280;50592;52.958;-7.470;2024-03-25T12:12:57;97792.06;;;10.18;100.00
64253;BME280;50592;52.958;-7.470;2024-03-25T12:15:22;97798.16;;;10.25;100.00
64253;BME280;50592;52.958;-7.470;2024-03-25T12:17:49;97793.47;;;10.27;100.00
64253;BME280;50592;52.958;-7.470;2024-03-25T12:20:17;97795.31;;;10.27;100.00
64253;BME280;50592;52.958;-7.470;2024-03-25T12:22:44;97797.94;;;10.27;100.00
64253;BME280;50592;52.958;-7.470;2024-03-25T12:25:10;97794.50;;;10.26;100.00
64253;BME280;50592;52.958;-7.470;2024-03-25T12:27:37;97799.56;;;10.28;100.00
64253;BME280;50592;52.958;-7.470;2024-03-25T12:32:40;97801.00;;;10.24;100.00
64253;BME280;50592;52.958;-7.470;2024-03-25T12:35:14;97800.19;;;10.23;100.00
64253;BME280;50592;52.958;-7.470;2024-03-25T12:37:47;97785.78;;;10.19;100.00
64253;BME280;50592;52.958;-7.470;2024-03-25T12:40:27;97797.34;;;10.25;100.00
64253;BME280;50592;52.958;-7.470;2024-03-25T12:42:53;97785.38;;;10.22;100.00
64253;BME280;50592;52.958;-7.470;2024-03-25T12:45:22;97780.31;;;10.21;100.00
64253;BME280;50592;52.958;-7.470;2024-03-25T12:47:51;97777.25;;;10.17;100.00
64253;BME280;50592;52.958;-7.470;2024-03-25T12:50:17;97780.09;;;10.22;100.00
64253;BME280;50592;52.958;-7.470;2024-03-25T12:52:44;97777.19;;;10.30;100.00
64253;BME280;50592;52.958;-7.470;2024-03-25T12:55:10;97780.22;;;10.41;100.00
64253;BME280;50592;52.958;-7.470;2024-03-25T12:57:36;97772.84;;;10.63;100.00
64253;BME280;50592;52.958;-7.470;2024-03-25T13:00:02;97771.97;;;10.76;100.00
64253;BME280;50592;52.958;-7.470;2024-03-25T13:02:30;97770.53;;;10.74;100.00
64253;BME280;50592;52.958;-7.470;2024-03-25T13:04:59;97767.13;;;10.73;100.00
64253;BME280;50592;52.958;-7.470;2024-03-25T13:07:32;97763.41;;;10.81;100.00